Time;durP1;ratioP1;P1;durP2;ratioP2;P2;SDS_P1;SDS_P2;PMS_P1;PMS_P2;Temp;Humidity;BMP_temperature;BMP_pressure;BME280_temperature;BME280_humidity;BME280_pressure;Samples;Min_cycle;Max_cycle;Signal;HPM_P1;HPM_P2
2023/04/22 04:02:38;;;;;;;3.00;2.42;;;9.50;99.90;;;;;;4931254;29;20454;-68
2023/04/22 04:05:07;;;;;;;3.33;3.17;;;9.50;99.90;;;;;;4932246;29;20210;-69
2023/04/22 04:07:34;;;;;;;6.18;3.05;;;9.60;99.90;;;;;;4932980;29;20210;-70
2023/04/22 04:10:01;;;;;;;2.53;2.28;;;9.60;99.90;;;;;;4933072;29;20206;-70
2023/04/22 04:12:27;;;;;;;7.20;3.45;;;9.60;99.90;;;;;;4936406;29;20659;-69
2023/04/22 04:14:54;;;;;;;3.63;2.55;;;9.60;99.90;;;;;;4936331;29;20210;-72
2023/04/22 04:17:24;;;;;;;2.75;2.55;;;9.60;99.90;;;;;;4935777;29;20230;-72
2023/04/22 04:19:53;;;;;;;3.85;2.45;;;9.70;99.90;;;;;;4936265;29;20214;-72
2023/04/22 04:22:19;;;;;;;3.33;2.25;;;9.70;99.90;;;;;;4935851;29;20572;-72
2023/04/22 04:24:46;;;;;;;2.47;2.38;;;9.70;99.90;;;;;;4935983;29;20228;-71
2023/04/22 04:27:13;;;;;;;3.97;3.60;;;9.70;99.90;;;;;;4935986;29;20210;-73
2023/04/22 04:29:40;;;;;;;8.48;3.08;;;9.70;99.90;;;;;;4935797;29;20214;-73
2023/04/22 04:32:08;;;;;;;3.38;3.13;;;9.80;99.90;;;;;;4935435;29;20679;-71
2023/04/22 04:34:35;;;;;;;4.18;3.78;;;9.80;99.90;;;;;;4931179;29;20296;-72
2023/04/22 04:37:03;;;;;;;5.85;3.92;;;9.80;99.90;;;;;;4935867;29;20240;-72
2023/04/22 04:39:31;;;;;;;2.92;2.80;;;9.70;99.90;;;;;;4936264;29;20214;-72
2023/04/22 04:41:59;;;;;;;2.83;2.72;;;9.80;99.90;;;;;;4936214;29;20229;-73
2023/04/22 04:44:26;;;;;;;5.20;4.45;;;9.80;99.90;;;;;;4934909;29;20269;-71
2023/04/22 04:46:54;;;;;;;4.22;3.92;;;10.00;99.90;;;;;;4935720;29;20210;-71
2023/04/22 04:49:21;;;;;;;7.05;4.05;;;10.40;99.90;;;;;;4935860;29;20305;-72
2023/04/22 04:51:48;;;;;;;8.93;5.23;;;10.90;99.90;;;;;;4936008;29;20717;-71
2023/04/22 04:54:16;;;;;;;3.60;3.40;;;11.40;99.90;;;;;;4935341;29;20965;-71
2023/04/22 04:56:43;;;;;;;4.90;4.50;;;11.70;99.90;;;;;;4935745;29;20819;-71
2023/04/22 04:59:10;;;;;;;4.23;3.83;;;11.80;99.90;;;;;;4936066;29;20473;-71
2023/04/22 05:01:36;;;;;;;3.27;2.97;;;11.90;99.90;;;;;;4935544;29;20497;-72
2023/04/22 05:04:03;;;;;;;4.67;4.27;;;11.90;99.90;;;;;;4935049;29;20474;-71
2023/04/22 05:06:31;;;;;;;6.50;3.60;;;11.90;99.90;;;;;;4935989;29;20480;-72
2023/04/22 05:08:58;;;;;;;3.93;3.53;;;11.80;99.90;;;;;;4935548;29;20558;-71
2023/04/22 05:11:26;;;;;;;3.80;3.33;;;11.80;99.90;;;;;;4935532;29;20489;-72
2023/04/22 05:13:53;;;;;;;5.07;4.43;;;11.70;99.90;;;;;;4934596;29;20561;-72
2023/04/22 05:16:19;;;;;;;4.30;2.90;;;11.80;99.90;;;;;;4934876;29;20470;-70
2023/04/22 05:18:46;;;;;;;3.50;3.40;;;11.90;99.90;;;;;;4935096;29;20493;-72
2023/04/22 05:21:13;;;;;;;5.60;5.10;;;12.00;99.90;;;;;;4934920;29;20565;-73
2023/04/22 05:23:39;;;;;;;3.33;3.03;;;12.00;99.90;;;;;;4934463;29;20474;-70
2023/04/22 05:26:06;;;;;;;4.40;4.13;;;12.10;99.90;;;;;;4935238;29;20469;-73
2023/04/22 05:28:34;;;;;;;4.40;4.10;;;12.20;99.90;;;;;;4934913;29;20461;-71
2023/04/22 05:31:01;;;;;;;5.77;4.60;;;12.30;99.90;;;;;;4934555;29;20493;-70
2023/04/22 05:33:28;;;;;;;4.20;3.90;;;12.30;99.90;;;;;;4934661;29;21100;-70
2023/04/22 05:35:55;;;;;;;4.17;3.80;;;12.20;99.90;;;;;;4934907;29;20489;-71
2023/04/22 05:38:22;;;;;;;4.23;3.80;;;12.10;99.90;;;;;;4935040;29;20489;-69
2023/04/22 05:40:49;;;;;;;4.00;3.80;;;12.10;99.90;;;;;;4935460;29;20497;-71
2023/04/22 05:43:16;;;;;;;6.73;4.60;;;12.20;99.90;;;;;;4933944;29;20986;-73
2023/04/22 05:45:44;;;;;;;4.97;4.53;;;12.30;99.90;;;;;;4934512;29;20476;-72
2023/04/22 05:48:11;;;;;;;4.10;3.80;;;12.40;99.90;;;;;;4934633;29;20548;-71
2023/04/22 05:50:37;;;;;;;3.77;3.40;;;12.50;99.90;;;;;;4935394;29;20485;-72
2023/04/22 05:53:04;;;;;;;2.87;2.77;;;12.50;99.90;;;;;;4934483;29;20466;-71
2023/04/22 05:55:31;;;;;;;4.73;4.43;;;12.60;99.90;;;;;;4934252;29;20503;-72
2023/04/22 05:57:58;;;;;;;4.23;3.97;;;12.70;99.90;;;;;;4934507;29;20489;-73
2023/04/22 06:00:24;;;;;;;3.63;3.33;;;12.90;99.90;;;;;;4934274;29;20980;-72
2023/04/22 06:02:53;;;;;;;4.30;3.53;;;13.00;99.90;;;;;;4934195;29;20903;-72
2023/04/22 06:05:20;;;;;;;1.40;1.40;;;13.10;99.90;;;;;;4934541;29;20484;-72
2023/04/22 06:07:46;;;;;;;5.70;4.67;;;13.10;99.90;;;;;;4935106;29;20471;-69
2023/04/22 06:10:13;;;;;;;4.63;4.23;;;13.40;99.90;;;;;;4935149;29;20481;-71
2023/04/22 06:12:40;;;;;;;4.90;4.50;;;13.70;99.90;;;;;;4934271;29;20458;-72
2023/04/22 06:15:08;;;;;;;3.63;3.43;;;13.80;99.90;;;;;;4934490;29;20477;-71
2023/04/22 06:17:34;;;;;;;4.30;4.00;;;14.00;99.90;;;;;;4934108;29;20489;-71
2023/04/22 06:20:03;;;;;;;3.53;3.43;;;14.40;99.90;;;;;;4934728;29;20472;-72
2023/04/22 06:22:29;;;;;;;4.27;3.97;;;14.80;99.90;;;;;;4934258;29;20485;-71
2023/04/22 06:24:56;;;;;;;2.93;2.73;;;15.20;99.90;;;;;;4933627;29;20497;-73
2023/04/22 06:27:23;;;;;;;2.17;2.07;;;15.20;99.90;;;;;;4934224;29;20474;-72
2023/04/22 06:29:49;;;;;;;4.03;3.63;;;15.50;99.90;;;;;;4934262;29;20465;-72
2023/04/22 06:32:16;;;;;;;4.30;3.90;;;15.80;99.90;;;;;;4934712;29;20512;-72
2023/04/22 06:34:43;;;;;;;4.03;3.73;;;15.80;99.90;;;;;;4933771;29;20476;-72
2023/04/22 06:37:11;;;;;;;3.33;3.20;;;16.00;99.90;;;;;;4934349;29;20462;-71
2023/04/22 06:39:38;;;;;;;4.13;3.90;;;16.20;99.90;;;;;;4934332;29;20470;-72
2023/04/22 06:42:04;;;;;;;3.50;3.37;;;16.50;99.90;;;;;;4934195;29;20573;-72
2023/04/22 06:44:31;;;;;;;4.67;4.23;;;16.70;99.90;;;;;;4933187;29;20476;-71
2023/04/22 06:46:58;;;;;;;8.43;2.90;;;16.70;99.90;;;;;;4933798;29;20520;-70
2023/04/22 06:49:25;;;;;;;5.30;4.80;;;16.70;99.90;;;;;;4934670;29;20473;-71
2023/04/22 06:51:51;;;;;;;4.10;3.90;;;16.90;99.90;;;;;;4934315;29;20918;-71
2023/04/22 06:54:19;;;;;;;3.80;3.50;;;17.30;99.90;;;;;;4934406;29;20553;-70
2023/04/22 06:56:46;;;;;;;2.83;2.67;;;17.30;99.90;;;;;;4935205;29;20469;-70
2023/04/22 06:59:13;;;;;;;3.50;1.80;;;17.40;99.90;;;;;;4935205;29;20508;-71
2023/04/22 07:01:40;;;;;;;2.67;2.67;;;17.20;99.90;;;;;;4934663;29;21127;-71
2023/04/22 07:04:06;;;;;;;3.30;3.10;;;17.00;99.90;;;;;;4941004;29;20469;-70
2023/04/22 07:06:33;;;;;;;3.50;3.33;;;17.00;99.90;;;;;;4943307;29;20465;-71
2023/04/22 07:09:00;;;;;;;3.77;3.57;;;17.00;99.90;;;;;;4944770;29;20469;-72
2023/04/22 07:11:30;;;;;;;4.63;4.33;;;16.70;99.90;;;;;;4946791;29;20576;-70
2023/04/22 07:13:56;;;;;;;3.17;3.07;;;16.60;99.90;;;;;;4941702;29;20474;-71
2023/04/22 07:16:23;;;;;;;3.30;3.00;;;16.30;99.90;;;;;;4936297;29;20469;-73
2023/04/22 07:18:50;;;;;;;3.53;3.30;;;16.40;99.90;;;;;;4937304;29;20587;-72
2023/04/22 07:21:17;;;;;;;2.73;2.63;;;16.80;99.90;;;;;;4936396;29;20489;-72
2023/04/22 07:23:44;;;;;;;3.53;3.33;;;17.00;99.90;;;;;;4935776;29;20496;-72
2023/04/22 07:26:11;;;;;;;2.83;2.73;;;17.20;99.90;;;;;;4934601;29;20493;-72
2023/04/22 07:28:39;;;;;;;3.80;3.50;;;17.20;99.90;;;;;;4933532;29;20469;-72
2023/04/22 07:31:06;;;;;;;4.90;4.47;;;17.60;99.90;;;;;;4933204;29;20489;-71
2023/04/22 07:33:32;;;;;;;4.53;3.33;;;17.60;99.90;;;;;;4933065;29;21073;-71
2023/04/22 07:35:59;;;;;;;4.17;3.23;;;17.60;99.90;;;;;;4933277;29;20488;-72
2023/04/22 07:38:26;;;;;;;3.60;3.40;;;17.90;99.90;;;;;;4933553;29;20499;-72
2023/04/22 07:40:53;;;;;;;3.40;3.30;;;18.00;99.90;;;;;;4933563;29;20489;-71
2023/04/22 07:43:19;;;;;;;2.87;2.80;;;17.90;99.90;;;;;;4932280;29;20481;-71
2023/04/22 07:45:47;;;;;;;3.57;3.47;;;17.70;99.90;;;;;;4935473;29;20465;-72
2023/04/22 07:48:14;;;;;;;4.23;3.83;;;17.50;99.90;;;;;;4936317;29;20461;-72
2023/04/22 07:50:41;;;;;;;3.50;3.30;;;17.40;99.90;;;;;;4937371;29;20856;-72
2023/04/22 07:53:09;;;;;;;3.30;3.17;;;17.20;99.90;;;;;;4937264;29;20465;-72
2023/04/22 07:55:36;;;;;;;5.80;3.37;;;17.10;99.90;;;;;;4936196;29;20469;-72
2023/04/22 07:58:05;;;;;;;3.60;3.20;;;17.10;99.90;;;;;;4936630;29;20632;-72
2023/04/22 08:00:32;;;;;;;3.93;3.63;;;17.10;99.90;;;;;;4937052;29;20845;-72
2023/04/22 08:03:00;;;;;;;3.43;3.23;;;17.20;99.90;;;;;;4936687;29;20567;-71
2023/04/22 08:05:26;;;;;;;3.30;3.10;;;17.30;99.90;;;;;;4936268;29;20469;-71
2023/04/22 08:07:53;;;;;;;3.20;3.10;;;17.40;99.90;;;;;;4947767;29;20492;-71
2023/04/22 08:10:20;;;;;;;3.30;3.10;;;17.50;99.90;;;;;;4936876;29;20473;-71
2023/04/22 08:12:47;;;;;;;5.53;3.33;;;17.50;99.90;;;;;;4936389;29;20465;-71
2023/04/22 08:15:13;;;;;;;2.80;2.70;;;17.60;99.90;;;;;;4936523;29;21093;-72
2023/04/22 08:17:40;;;;;;;3.10;3.00;;;17.80;99.90;;;;;;4936453;29;20517;-71
2023/04/22 08:20:09;;;;;;;2.63;2.50;;;17.90;99.90;;;;;;4937018;29;20603;-71
2023/04/22 08:22:37;;;;;;;3.00;2.80;;;17.80;99.90;;;;;;4936895;29;20469;-71
2023/04/22 08:25:06;;;;;;;3.33;3.03;;;17.90;99.90;;;;;;4935983;29;20933;-70
2023/04/22 08:27:33;;;;;;;2.40;2.30;;;17.90;99.90;;;;;;4936089;29;20469;-70
2023/04/22 08:29:59;;;;;;;3.00;2.83;;;17.90;99.90;;;;;;4936246;29;21059;-72
2023/04/22 08:32:26;;;;;;;2.77;2.67;;;17.80;99.90;;;;;;4935470;29;20492;-71
2023/04/22 08:34:53;;;;;;;3.53;3.33;;;17.80;99.90;;;;;;4935989;29;20469;-72
2023/04/22 08:37:21;;;;;;;4.27;4.07;;;17.80;99.90;;;;;;4936199;29;20462;-73
2023/04/22 08:39:48;;;;;;;2.23;2.23;;;17.90;99.90;;;;;;4936306;29;20859;-71
2023/04/22 08:42:15;;;;;;;3.63;3.13;;;17.80;99.90;;;;;;4936043;29;20828;-71
2023/04/22 08:44:43;;;;;;;3.07;2.87;;;17.80;99.90;;;;;;4935275;29;20934;-72
2023/04/22 08:47:11;;;;;;;4.17;3.87;;;17.70;99.90;;;;;;4935871;29;20466;-72
2023/04/22 08:49:37;;;;;;;3.10;2.90;;;17.70;99.90;;;;;;4936274;29;20813;-71
2023/04/22 08:52:04;;;;;;;4.23;3.93;;;17.80;99.90;;;;;;4935868;29;20489;-72
2023/04/22 08:54:33;;;;;;;3.63;3.43;;;17.80;99.90;;;;;;4935538;29;20476;-71
2023/04/22 08:57:01;;;;;;;2.90;2.70;;;17.90;99.90;;;;;;4935843;29;20492;-71
2023/04/22 08:59:28;;;;;;;4.90;3.93;;;17.90;99.90;;;;;;4935438;29;21024;-72
2023/04/22 09:01:57;;;;;;;2.50;2.30;;;17.90;99.90;;;;;;4935062;29;20532;-72
2023/04/22 09:04:24;;;;;;;3.20;3.00;;;18.00;99.90;;;;;;4935162;29;20470;-72
2023/04/22 09:06:51;;;;;;;2.43;2.33;;;18.10;99.90;;;;;;4935584;29;20684;-72
2023/04/22 09:09:19;;;;;;;3.07;2.87;;;18.20;99.90;;;;;;4935870;29;20464;-71
2023/04/22 09:11:47;;;;;;;2.90;2.80;;;18.30;99.90;;;;;;4935347;29;20504;-71
2023/04/22 09:14:15;;;;;;;4.00;3.77;;;18.30;99.90;;;;;;4934289;29;20475;-71
2023/04/22 09:16:47;;;;;;;2.47;2.37;;;18.40;99.90;;;;;;4935506;29;20795;-70
2023/04/22 09:19:14;;;;;;;2.37;2.23;;;18.40;99.90;;;;;;4935782;29;20489;-70
2023/04/22 09:21:42;;;;;;;3.33;3.20;;;18.50;99.90;;;;;;4935378;29;20548;-71
2023/04/22 09:24:10;;;;;;;3.40;3.20;;;18.60;99.90;;;;;;4935000;29;20842;-70
2023/04/22 09:26:40;;;;;;;5.23;3.00;;;18.60;99.90;;;;;;4935540;29;20569;-71
2023/04/22 09:29:13;;;;;;;3.30;3.20;;;18.70;99.90;;;;;;4934951;29;20466;-71
2023/04/22 09:31:40;;;;;;;3.03;2.80;;;18.80;99.90;;;;;;4935373;29;20495;-71
2023/04/22 09:34:08;;;;;;;2.90;2.70;;;18.90;99.90;;;;;;4930789;29;20579;-72
2023/04/22 09:36:36;;;;;;;3.23;3.03;;;19.00;99.90;;;;;;4934717;29;20469;-72
2023/04/22 09:39:04;;;;;;;2.50;2.40;;;18.90;99.90;;;;;;4934936;29;21028;-71
2023/04/22 09:41:32;;;;;;;2.77;2.63;;;18.90;99.90;;;;;;4934686;29;20993;-71
2023/04/22 09:44:00;;;;;;;2.80;2.37;;;19.10;99.90;;;;;;4934156;29;20473;-72
2023/04/22 09:46:29;;;;;;;1.93;1.83;;;19.20;99.90;;;;;;4934494;29;20462;-71
2023/04/22 09:48:58;;;;;;;2.60;2.50;;;19.20;99.90;;;;;;4934766;29;20516;-69
2023/04/22 09:51:26;;;;;;;4.30;4.10;;;19.30;99.90;;;;;;4934349;29;20485;-70
2023/04/22 09:54:00;;;;;;;2.00;1.90;;;19.40;99.90;;;;;;4935509;29;20552;-70
2023/04/22 09:56:48;;;;;;;2.50;2.30;;;19.50;99.90;;;;;;4935183;29;20467;-71
2023/04/22 09:59:19;;;;;;;3.77;3.57;;;19.60;99.90;;;;;;4934167;29;21097;-69
2023/04/22 10:01:47;;;;;;;2.83;2.63;;;19.60;99.90;;;;;;4933615;29;21001;-71
2023/04/22 10:04:15;;;;;;;3.00;2.90;;;19.70;99.90;;;;;;4933926;29;20496;-71
2023/04/22 10:06:42;;;;;;;2.00;2.00;;;19.60;99.90;;;;;;4934673;29;20476;-71
2023/04/22 10:09:11;;;;;;;4.00;3.03;;;19.60;99.90;;;;;;4933876;29;20959;-71
2023/04/22 10:11:39;;;;;;;2.07;1.97;;;19.70;99.90;;;;;;4934227;29;20481;-71
2023/04/22 10:14:09;;;;;;;5.80;3.20;;;19.90;99.90;;;;;;4967051;23;20634;-70
2023/04/22 10:16:38;;;;;;;1.90;1.90;;;19.90;99.90;;;;;;5011563;28;20489;-70
2023/04/22 10:19:09;;;;;;;2.20;2.10;;;19.80;99.90;;;;;;5011943;28;20859;-72
2023/04/22 10:21:37;;;;;;;2.40;2.07;;;19.80;99.90;;;;;;5011935;28;20466;-69
2023/04/22 10:24:04;;;;;;;2.57;2.47;;;19.90;99.90;;;;;;5011142;28;20473;-71
2023/04/22 10:26:49;;;;;;;3.43;2.40;;;20.10;99.90;;;;;;5012041;28;20528;-71
2023/04/22 10:29:18;;;;;;;2.20;2.10;;;20.10;99.90;;;;;;5011972;28;20470;-71
2023/04/22 10:31:52;;;;;;;1.90;1.90;;;20.00;99.90;;;;;;5011316;28;20476;-71
2023/04/22 10:34:20;;;;;;;3.07;2.97;;;20.30;99.90;;;;;;5010809;28;21045;-71
2023/04/22 10:37:00;;;;;;;1.80;1.70;;;20.30;99.90;;;;;;5011319;28;20478;-72
2023/04/22 10:39:28;;;;;;;4.20;2.57;;;20.30;99.90;;;;;;5011330;28;20485;-71
2023/04/22 10:41:58;;;;;;;7.60;2.40;;;20.40;99.90;;;;;;5011343;28;20934;-71
2023/04/22 10:44:30;;;;;;;2.27;2.17;;;20.40;99.90;;;;;;5010412;28;20492;-72
2023/04/22 10:47:00;;;;;;;3.00;2.80;;;20.40;99.90;;;;;;5011251;28;20908;-71
2023/04/22 10:49:31;;;;;;;2.60;2.60;;;20.50;99.90;;;;;;5011487;28;20532;-71
2023/04/22 10:52:00;;;;;;;2.70;2.60;;;20.60;99.90;;;;;;5011260;28;20474;-72
2023/04/22 10:54:59;;;;;;;1.73;1.73;;;20.70;99.90;;;;;;5010815;28;20486;-71
2023/04/22 10:57:36;;;;;;;2.33;2.23;;;20.70;99.90;;;;;;5011177;28;20486;-71
2023/04/22 11:00:18;;;;;;;2.57;2.47;;;20.70;99.90;;;;;;5011354;28;20485;-72
2023/04/22 11:02:45;;;;;;;2.13;2.03;;;20.90;99.90;;;;;;5011100;28;20462;-72
2023/04/22 11:05:20;;;;;;;1.30;1.30;;;20.80;99.90;;;;;;5010809;28;20500;-70
2023/04/22 11:07:49;;;;;;;2.03;1.93;;;20.90;99.90;;;;;;5011311;28;20461;-70
2023/04/22 11:10:32;;;;;;;2.33;2.30;;;21.00;99.90;;;;;;5011529;28;20819;-70
2023/04/22 11:13:00;;;;;;;6.30;2.40;;;21.00;99.90;;;;;;5011029;28;20462;-70
2023/04/22 11:15:30;;;;;;;2.17;1.40;;;20.90;99.90;;;;;;5010788;28;20973;-69
2023/04/22 11:17:57;;;;;;;2.43;2.33;;;21.00;99.90;;;;;;5010604;28;20576;-70
2023/04/22 11:20:25;;;;;;;2.50;2.03;;;21.10;99.90;;;;;;5012517;28;21006;-71
2023/04/22 11:22:54;;;;;;;1.70;1.70;;;21.30;99.90;;;;;;5014848;28;20461;-71
2023/04/22 11:25:21;;;;;;;2.20;2.13;;;21.30;99.90;;;;;;5013994;28;20485;-70
2023/04/22 11:27:48;;;;;;;1.40;1.40;;;21.30;99.90;;;;;;5014000;28;20461;-70
2023/04/22 11:30:17;;;;;;;2.30;2.23;;;21.50;99.50;;;;;;5014922;28;20462;-71
2023/04/22 11:32:45;;;;;;;1.70;1.70;;;21.60;99.70;;;;;;5014201;28;20461;-71
2023/04/22 11:35:13;;;;;;;1.87;1.77;;;21.70;99.60;;;;;;5010051;28;20902;-72
2023/04/22 11:37:43;;;;;;;1.30;1.30;;;21.90;98.90;;;;;;5014336;28;20468;-72
2023/04/22 11:40:12;;;;;;;1.23;1.23;;;22.00;98.20;;;;;;5014871;28;20496;-71
2023/04/22 11:42:39;;;;;;;1.77;1.67;;;22.00;97.90;;;;;;5014323;28;20461;-71
2023/04/22 11:45:07;;;;;;;2.27;2.17;;;22.10;98.10;;;;;;5014405;28;20486;-71
2023/04/22 11:47:35;;;;;;;1.67;1.60;;;22.00;98.20;;;;;;5014498;28;20462;-71
2023/04/22 11:50:05;;;;;;;1.90;1.90;;;22.10;98.00;;;;;;5014535;28;20469;-72
2023/04/22 11:52:47;;;;;;;1.83;1.73;;;22.10;98.10;;;;;;5014361;28;20470;-71
2023/04/22 11:55:15;;;;;;;2.00;2.00;;;22.10;97.40;;;;;;5014189;28;21001;-71
2023/04/22 11:57:43;;;;;;;1.33;1.33;;;22.10;97.50;;;;;;5014431;28;20947;-70
2023/04/22 12:00:13;;;;;;;2.10;2.00;;;22.20;97.40;;;;;;5015002;28;20482;-71
2023/04/22 12:02:40;;;;;;;1.90;1.90;;;22.20;97.70;;;;;;5014069;28;20465;-70
2023/04/22 12:05:11;;;;;;;2.20;1.97;;;22.10;97.10;;;;;;5014455;28;20496;-70
2023/04/22 12:07:38;;;;;;;11.23;2.30;;;22.00;97.20;;;;;;5014851;28;20948;-71
2023/04/22 12:10:07;;;;;;;6.00;1.90;;;22.10;97.10;;;;;;5014891;28;20461;-71
2023/04/22 12:12:36;;;;;;;1.10;1.10;;;22.30;97.20;;;;;;5014776;28;20850;-70
2023/04/22 12:15:09;;;;;;;1.83;1.60;;;22.30;97.20;;;;;;5014498;28;20497;-70
2023/04/22 12:17:35;;;;;;;1.40;1.40;;;22.40;96.80;;;;;;5014549;28;20477;-71
2023/04/22 12:20:03;;;;;;;1.80;1.70;;;22.60;96.10;;;;;;5015112;28;20512;-70
2023/04/22 12:22:32;;;;;;;1.13;1.13;;;22.50;96.10;;;;;;5014405;28;20966;-71
2023/04/22 12:24:59;;;;;;;2.80;2.80;;;22.60;95.90;;;;;;5014239;28;20496;-71
2023/04/22 12:27:27;;;;;;;1.43;1.43;;;22.60;95.80;;;;;;5014280;28;20811;-71
2023/04/22 12:29:56;;;;;;;3.40;2.30;;;22.60;96.40;;;;;;5013716;28;20462;-71
2023/04/22 12:32:25;;;;;;;2.40;2.00;;;22.50;96.10;;;;;;5013580;28;20462;-70
2023/04/22 12:34:52;;;;;;;1.90;1.80;;;22.50;96.60;;;;;;5013564;28;20493;-69
2023/04/22 12:37:19;;;;;;;1.77;1.70;;;22.70;96.10;;;;;;5013934;28;20808;-69
2023/04/22 12:39:46;;;;;;;2.20;1.90;;;22.70;95.80;;;;;;5013476;28;20486;-69
2023/04/22 12:42:13;;;;;;;2.10;1.93;;;22.50;95.70;;;;;;5013282;28;20974;-69
2023/04/22 12:44:42;;;;;;;1.83;1.83;;;22.50;96.30;;;;;;5012347;28;20916;-71
2023/04/22 12:47:09;;;;;;;1.67;1.63;;;22.70;95.90;;;;;;5013306;28;20813;-69
2023/04/22 12:49:38;;;;;;;1.83;1.80;;;22.70;95.90;;;;;;5013594;28;20540;-70
2023/04/22 12:52:05;;;;;;;2.60;2.40;;;22.80;96.20;;;;;;5013115;28;21054;-69
2023/04/22 12:54:31;;;;;;;2.20;2.10;;;22.70;95.60;;;;;;5012561;28;20494;-70
2023/04/22 12:57:00;;;;;;;1.90;1.90;;;22.70;95.90;;;;;;5012470;28;20461;-70
2023/04/22 12:59:27;;;;;;;1.43;1.43;;;22.80;96.00;;;;;;5012519;28;20462;-71
2023/04/22 13:01:55;;;;;;;1.83;1.83;;;22.70;95.70;;;;;;5012516;28;20465;-69
2023/04/22 13:04:21;;;;;;;1.60;1.50;;;22.90;95.90;;;;;;5012231;28;20509;-68
2023/04/22 13:06:54;;;;;;;1.77;1.77;;;22.90;95.60;;;;;;5012897;28;20467;-68
2023/04/22 13:09:22;;;;;;;1.90;1.80;;;23.00;94.20;;;;;;5012667;28;20466;-70
2023/04/22 13:11:49;;;;;;;1.57;1.50;;;23.00;94.40;;;;;;5012749;28;20493;-68
2023/04/22 13:14:16;;;;;;;1.80;1.53;;;22.90;94.50;;;;;;5011722;28;20501;-69
2023/04/22 13:16:42;;;;;;;1.80;1.80;;;22.80;94.50;;;;;;5012074;28;20841;-69
2023/04/22 13:19:11;;;;;;;2.73;1.97;;;22.80;94.70;;;;;;5012724;28;20473;-71
2023/04/22 13:21:38;;;;;;;2.00;1.90;;;22.70;94.90;;;;;;5012354;28;20847;-71
2023/04/22 13:24:05;;;;;;;2.13;2.13;;;22.60;94.90;;;;;;5011616;28;20585;-69
2023/04/22 13:26:31;;;;;;;1.50;1.50;;;22.60;94.90;;;;;;5012356;28;20521;-71
2023/04/22 13:28:58;;;;;;;1.63;1.63;;;22.70;94.90;;;;;;5012449;28;20467;-71
2023/04/22 13:31:25;;;;;;;1.73;1.73;;;22.90;95.10;;;;;;5011987;28;20472;-70
2023/04/22 13:33:51;;;;;;;1.67;1.40;;;23.00;94.50;;;;;;5011534;28;20836;-71
2023/04/22 13:36:19;;;;;;;1.70;1.70;;;23.20;94.80;;;;;;5011843;28;20905;-70
2023/04/22 13:38:46;;;;;;;2.70;1.40;;;23.30;95.00;;;;;;5012277;28;20594;-71
2023/04/22 13:41:13;;;;;;;2.30;2.20;;;23.30;94.70;;;;;;5012171;28;20493;-70
2023/04/22 13:43:39;;;;;;;2.30;2.20;;;23.30;94.70;;;;;;5010290;28;20809;-69
2023/04/22 13:46:06;;;;;;;2.97;1.70;;;23.20;94.50;;;;;;5011651;28;20488;-70
2023/04/22 13:48:33;;;;;;;1.63;1.63;;;23.30;94.60;;;;;;5011902;28;20467;-70
2023/04/22 13:50:59;;;;;;;1.10;1.10;;;23.30;94.90;;;;;;5011729;28;20464;-70
2023/04/22 13:53:28;;;;;;;1.43;1.43;;;23.20;94.50;;;;;;5011139;28;20468;-70
2023/04/22 13:55:54;;;;;;;1.40;1.40;;;23.10;94.50;;;;;;5012615;28;20483;-71
2023/04/22 13:58:21;;;;;;;4.23;1.67;;;23.10;93.70;;;;;;5011225;28;20981;-70
2023/04/22 14:00:48;;;;;;;1.30;1.30;;;23.00;93.50;;;;;;5011667;28;20486;-69
2023/04/22 14:03:14;;;;;;;1.30;1.30;;;23.10;93.90;;;;;;5010896;28;20558;-69
2023/04/22 14:05:41;;;;;;;1.40;1.40;;;23.20;93.40;;;;;;5011445;28;20493;-70
2023/04/22 14:08:08;;;;;;;1.60;1.60;;;23.30;93.80;;;;;;5012699;28;20463;-70
2023/04/22 14:10:36;;;;;;;1.60;1.60;;;23.30;93.20;;;;;;5012814;28;20461;-72
2023/04/22 14:13:03;;;;;;;1.33;1.33;;;23.30;92.90;;;;;;5011366;28;20490;-72
2023/04/22 14:15:29;;;;;;;1.47;1.47;;;23.30;93.10;;;;;;5011309;28;20512;-71
2023/04/22 14:17:56;;;;;;;1.40;1.30;;;23.20;93.20;;;;;;5011424;28;20553;-70
2023/04/22 14:20:24;;;;;;;1.50;1.50;;;23.20;93.30;;;;;;5012002;28;20488;-70
2023/04/22 14:22:51;;;;;;;1.90;1.90;;;23.10;93.50;;;;;;5011955;28;20543;-71
2023/04/22 14:25:18;;;;;;;1.17;1.17;;;23.20;93.60;;;;;;5011277;28;20498;-71
2023/04/22 14:27:46;;;;;;;1.30;1.30;;;23.10;93.30;;;;;;5011255;28;20459;-68
2023/04/22 14:30:14;;;;;;;1.90;1.80;;;23.10;93.80;;;;;;5011969;28;20558;-70
2023/04/22 14:32:42;;;;;;;1.60;1.60;;;23.10;93.80;;;;;;5011313;28;20521;-71
2023/04/22 14:35:09;;;;;;;1.23;1.23;;;23.20;93.80;;;;;;5011671;28;20478;-71
2023/04/22 14:37:36;;;;;;;1.70;1.70;;;23.20;93.50;;;;;;5012235;28;20458;-70
2023/04/22 14:40:04;;;;;;;1.67;1.60;;;23.20;93.80;;;;;;5012060;28;20634;-70
2023/04/22 14:42:31;;;;;;;1.17;1.17;;;23.10;94.00;;;;;;5011992;28;21013;-70
2023/04/22 14:44:59;;;;;;;1.43;1.43;;;23.10;94.10;;;;;;5011937;28;20487;-69
2023/04/22 14:47:26;;;;;;;1.77;1.77;;;23.10;94.10;;;;;;5011103;28;20464;-70
2023/04/22 14:49:52;;;;;;;3.00;1.37;;;23.10;93.40;;;;;;5011826;28;20463;-69
2023/04/22 14:52:19;;;;;;;1.60;1.20;;;23.20;93.50;;;;;;5012030;28;20478;-69
2023/04/22 14:54:47;;;;;;;1.40;1.40;;;23.30;93.20;;;;;;5011373;28;20581;-70
2023/04/22 14:57:14;;;;;;;1.87;1.77;;;23.40;93.60;;;;;;5011994;28;20502;-70
2023/04/22 14:59:41;;;;;;;1.50;1.50;;;23.40;93.60;;;;;;5013101;28;20466;-71
2023/04/22 15:02:14;;;;;;;1.00;1.00;;;23.30;93.40;;;;;;5015368;28;20571;-71
2023/04/22 15:04:41;;;;;;;0.47;0.47;;;23.30;93.20;;;;;;5016880;28;20486;-70
2023/04/22 15:07:08;;;;;;;4.60;2.10;;;23.20;92.60;;;;;;5014202;28;20979;-72
2023/04/22 15:09:35;;;;;;;1.33;1.23;;;23.20;92.90;;;;;;5013868;28;20465;-71
2023/04/22 15:12:03;;;;;;;2.00;1.07;;;23.20;93.10;;;;;;5013861;28;20474;-71
2023/04/22 15:14:30;;;;;;;0.40;0.40;;;23.10;92.40;;;;;;5012712;28;20887;-72
2023/04/22 15:16:57;;;;;;;1.23;1.23;;;23.00;92.60;;;;;;5013086;28;20556;-71
2023/04/22 15:19:25;;;;;;;1.80;1.70;;;22.90;92.80;;;;;;5013441;28;20465;-71
2023/04/22 15:21:52;;;;;;;1.30;1.20;;;22.90;92.70;;;;;;5012393;28;20490;-71
2023/04/22 15:24:20;;;;;;;1.07;1.07;;;22.90;92.60;;;;;;5011914;28;20490;-71
2023/04/22 15:26:47;;;;;;;1.23;1.13;;;22.90;92.10;;;;;;5012515;28;20468;-71
2023/04/22 15:29:14;;;;;;;1.07;1.07;;;23.00;92.40;;;;;;5012316;28;20484;-71
2023/04/22 15:31:40;;;;;;;1.10;1.10;;;23.00;92.70;;;;;;5011229;28;20462;-72
2023/04/22 15:34:07;;;;;;;0.90;0.90;;;22.90;92.20;;;;;;5010844;28;20780;-71
2023/04/22 15:36:36;;;;;;;1.07;1.07;;;22.90;92.10;;;;;;5011754;28;20545;-70
2023/04/22 15:39:04;;;;;;;1.27;1.27;;;22.80;92.40;;;;;;5011123;28;20581;-70
2023/04/22 15:41:32;;;;;;;1.37;0.83;;;22.70;92.10;;;;;;5010657;28;20493;-71
2023/04/22 15:43:59;;;;;;;1.23;1.23;;;22.70;92.30;;;;;;5010329;28;20468;-71
2023/04/22 15:46:28;;;;;;;0.97;0.97;;;22.70;92.40;;;;;;5010569;28;20462;-70
2023/04/22 15:48:56;;;;;;;1.33;1.33;;;22.80;92.50;;;;;;5010939;28;20549;-69
2023/04/22 15:51:23;;;;;;;1.27;1.27;;;22.80;92.60;;;;;;5010729;28;20466;-71
2023/04/22 15:53:52;;;;;;;1.93;1.20;;;22.80;92.50;;;;;;5010042;28;20469;-70
2023/04/22 15:56:19;;;;;;;1.10;1.10;;;22.70;92.50;;;;;;5010464;28;20458;-71
2023/04/22 15:58:46;;;;;;;0.87;0.87;;;22.60;92.80;;;;;;5010185;28;21014;-70
2023/04/22 16:01:13;;;;;;;1.17;1.13;;;22.60;92.60;;;;;;5010077;28;20497;-69
2023/04/22 16:03:40;;;;;;;1.23;1.20;;;22.50;92.90;;;;;;5010239;28;20462;-69
2023/04/22 16:06:07;;;;;;;1.47;1.37;;;22.50;93.00;;;;;;5011352;28;20985;-70
2023/04/22 16:08:34;;;;;;;1.10;1.10;;;22.40;93.30;;;;;;5014532;28;20468;-69
2023/04/22 16:11:02;;;;;;;2.60;2.50;;;22.40;93.60;;;;;;5014363;28;20954;-70
2023/04/22 16:13:29;;;;;;;1.27;1.27;;;22.30;93.80;;;;;;5013362;28;20466;-69
2023/04/22 16:15:56;;;;;;;1.60;1.60;;;22.20;93.70;;;;;;5025916;23;20586;-71
2023/04/22 16:18:23;;;;;;;1.40;1.40;;;22.10;93.80;;;;;;4999949;28;20472;-70
2023/04/22 16:20:50;;;;;;;2.53;1.67;;;22.10;94.20;;;;;;4999094;28;20493;-71
2023/04/22 16:23:17;;;;;;;1.17;1.17;;;22.10;94.10;;;;;;4998368;28;20469;-71
2023/04/22 16:25:43;;;;;;;1.47;1.47;;;22.10;94.10;;;;;;4999157;28;20493;-71
2023/04/22 16:28:11;;;;;;;1.40;1.40;;;22.20;94.30;;;;;;4999731;28;20915;-72
2023/04/22 16:30:39;;;;;;;0.93;0.93;;;22.20;94.20;;;;;;4999102;28;20458;-71
2023/04/22 16:33:05;;;;;;;1.20;1.20;;;22.20;93.80;;;;;;4994531;28;20463;-68
2023/04/22 16:35:34;;;;;;;1.23;1.23;;;22.20;93.90;;;;;;5006623;28;20485;-73
2023/04/22 16:38:01;;;;;;;2.20;1.10;;;22.20;94.00;;;;;;5025084;28;20489;-72
2023/04/22 16:40:28;;;;;;;1.77;1.77;;;22.10;93.70;;;;;;5026974;28;20472;-73
2023/04/22 16:42:58;;;;;;;1.47;1.47;;;22.10;94.10;;;;;;5026630;28;20481;-73
2023/04/22 16:45:26;;;;;;;1.30;1.30;;;22.00;93.90;;;;;;5007823;28;20482;-72
2023/04/22 16:47:53;;;;;;;1.40;1.40;;;22.00;93.90;;;;;;5002768;28;20471;-74
2023/04/22 16:50:20;;;;;;;1.60;1.60;;;21.90;94.20;;;;;;5000348;28;20822;-75
2023/04/22 16:52:47;;;;;;;1.10;1.10;;;21.90;94.30;;;;;;5001474;28;20465;-73